createdAt,value
2022-12-18T00:02:13.254Z,28.55
2022-12-18T00:04:39.843Z,28.42
2022-12-18T00:07:06.396Z,28.30
2022-12-18T00:09:40.261Z,28.30
2022-12-18T00:14:42.941Z,28.49
2022-12-18T00:17:10.121Z,28.56
2022-12-18T00:19:36.748Z,28.53
2022-12-18T00:22:03.449Z,28.52
2022-12-18T00:24:30.006Z,28.65
2022-12-18T00:26:56.589Z,28.67
2022-12-18T00:29:23.127Z,28.43
2022-12-18T00:31:49.823Z,28.33
2022-12-18T00:34:16.875Z,28.40
2022-12-18T00:36:44.766Z,28.49
2022-12-18T00:39:11.677Z,28.51
2022-12-18T00:41:56.669Z,28.57
2022-12-18T00:44:23.327Z,28.50
2022-12-18T00:46:49.941Z,28.35
2022-12-18T00:49:19.897Z,28.24
2022-12-18T00:51:47.059Z,28.38
2022-12-18T00:54:13.651Z,28.49
2022-12-18T00:56:48.263Z,28.58
2022-12-18T00:59:15.796Z,28.50
2022-12-18T01:01:42.532Z,28.47
2022-12-18T01:04:12.653Z,28.28
2022-12-18T01:06:39.247Z,28.26
2022-12-18T01:09:06.722Z,28.30
2022-12-18T01:11:33.305Z,28.40
2022-12-18T01:13:59.889Z,28.43
2022-12-18T01:16:26.493Z,28.49
2022-12-18T01:18:54.660Z,28.52
2022-12-18T01:21:21.339Z,28.60
2022-12-18T01:23:48.029Z,28.48
2022-12-18T01:26:16.008Z,28.37
2022-12-18T01:28:44.635Z,28.30
2022-12-18T01:31:24.922Z,28.33
2022-12-18T01:33:52.109Z,28.42
2022-12-18T01:36:19.544Z,28.42
2022-12-18T01:38:46.393Z,28.50
2022-12-18T01:41:13.233Z,28.35
2022-12-18T01:43:58.256Z,28.19
2022-12-18T01:46:25.503Z,28.22
2022-12-18T01:48:55.594Z,28.31
2022-12-18T01:51:22.237Z,28.40
2022-12-18T01:53:51.870Z,28.43
2022-12-18T01:56:20.043Z,28.41
2022-12-18T01:58:55.298Z,28.50
2022-12-18T02:01:25.463Z,28.52
2022-12-18T02:03:52.467Z,28.27
2022-12-18T02:06:29.985Z,28.23
2022-12-18T02:09:10.167Z,28.34
2022-12-18T02:11:55.500Z,28.35
2022-12-18T02:14:44.349Z,28.38
2022-12-18T02:17:14.925Z,28.37
2022-12-18T02:20:07.968Z,28.47
2022-12-18T02:22:58.520Z,28.55
2022-12-18T02:25:56.097Z,28.58
2022-12-18T02:28:23.757Z,28.51
2022-12-18T02:30:50.387Z,28.50
2022-12-18T02:33:16.998Z,28.36
2022-12-18T02:35:43.558Z,28.32
2022-12-18T02:38:10.172Z,28.34
2022-12-18T02:40:36.768Z,28.48
2022-12-18T02:43:08.216Z,28.43
2022-12-18T02:45:34.869Z,28.50
2022-12-18T02:48:01.544Z,28.59
2022-12-18T02:50:30.660Z,28.55
2022-12-18T02:53:27.411Z,28.62
2022-12-18T02:55:53.822Z,28.63
2022-12-18T02:58:45.616Z,28.65
2022-12-18T03:01:25.707Z,28.38
2022-12-18T03:04:16.943Z,28.15
2022-12-18T03:06:46.184Z,27.76
2022-12-18T03:09:38.989Z,27.48
2022-12-18T03:12:28.457Z,27.18
2022-12-18T03:15:17.254Z,26.86
2022-12-18T03:17:47.569Z,26.45
2022-12-18T03:20:16.233Z,26.13
2022-12-18T03:22:43.518Z,25.84
2022-12-18T03:25:11.948Z,25.64
2022-12-18T03:27:39.542Z,25.37
2022-12-18T03:30:11.326Z,25.16
2022-12-18T03:33:00.543Z,24.94
2022-12-18T03:35:29.953Z,24.67
2022-12-18T03:37:56.502Z,24.42
2022-12-18T03:40:25.565Z,24.19
2022-12-18T03:42:53.883Z,24.02
2022-12-18T03:45:28.299Z,23.79
2022-12-18T03:48:07.714Z,23.61
2022-12-18T03:51:11.462Z,23.38
2022-12-18T03:53:48.701Z,23.17
2022-12-18T03:56:17.342Z,22.99
2022-12-18T03:58:43.955Z,22.86
2022-12-18T04:01:11.962Z,22.91
2022-12-18T04:03:38.898Z,23.14
2022-12-18T04:06:05.935Z,23.32
2022-12-18T04:08:32.714Z,23.95
2022-12-18T04:10:59.318Z,25.04
2022-12-18T04:13:28.830Z,26.41
2022-12-18T04:15:55.494Z,27.78
2022-12-18T04:18:22.176Z,28.94
2022-12-18T04:20:48.741Z,30.21
2022-12-18T04:23:15.397Z,31.29
2022-12-18T04:25:41.986Z,32.27
2022-12-18T04:28:08.689Z,32.61
2022-12-18T04:30:35.273Z,32.42
2022-12-18T04:33:01.816Z,32.07
2022-12-18T04:35:28.425Z,31.90
2022-12-18T04:37:54.961Z,31.58
2022-12-18T04:40:21.535Z,31.69
2022-12-18T04:42:48.121Z,32.22
2022-12-18T04:45:14.730Z,32.94
2022-12-18T04:47:41.282Z,33.42
2022-12-18T04:50:08.427Z,33.28
2022-12-18T04:52:35.038Z,33.06
2022-12-18T04:55:01.650Z,32.83
2022-12-18T04:57:28.249Z,32.59
2022-12-18T04:59:55.057Z,32.46
2022-12-18T05:02:21.767Z,32.24
2022-12-18T05:04:48.401Z,32.37
2022-12-18T05:07:14.956Z,32.80
2022-12-18T05:09:41.509Z,33.28
2022-12-18T05:12:08.365Z,33.68
2022-12-18T05:14:34.925Z,34.00
2022-12-18T05:17:01.568Z,33.97
2022-12-18T05:19:28.144Z,33.92
2022-12-18T05:21:54.695Z,33.72
2022-12-18T05:24:21.294Z,33.52
2022-12-18T05:26:47.998Z,33.34
2022-12-18T05:29:14.685Z,33.19
2022-12-18T05:31:41.322Z,33.01
2022-12-18T05:34:09.612Z,32.83
2022-12-18T05:36:37.189Z,32.75
2022-12-18T05:39:04.254Z,32.72
2022-12-18T05:41:31.015Z,32.64
2022-12-18T05:43:57.633Z,32.58
2022-12-18T05:46:25.360Z,32.61
2022-12-18T05:48:52.102Z,32.71
2022-12-18T05:51:20.720Z,32.79
2022-12-18T05:53:47.523Z,32.92
2022-12-18T05:56:15.808Z,32.87
2022-12-18T05:58:42.370Z,32.95
2022-12-18T06:01:14.551Z,33.02
2022-12-18T06:03:41.530Z,33.05
2022-12-18T06:06:23.228Z,33.06
2022-12-18T06:08:49.842Z,33.05
2022-12-18T06:11:21.143Z,33.10
2022-12-18T06:13:47.899Z,33.20
2022-12-18T06:16:14.524Z,33.11
2022-12-18T06:18:41.222Z,33.35
2022-12-18T06:21:07.885Z,33.34
2022-12-18T06:23:34.492Z,33.36
2022-12-18T06:26:05.492Z,33.43
2022-12-18T06:28:32.128Z,33.43
2022-12-18T06:30:58.683Z,33.49
2022-12-18T06:33:27.609Z,33.47
2022-12-18T06:35:57.889Z,33.47
2022-12-18T06:38:27.669Z,33.47
2022-12-18T06:40:54.348Z,33.46
2022-12-18T06:43:21.108Z,33.52
2022-12-18T06:45:53.686Z,33.53
2022-12-18T06:48:21.288Z,33.58
2022-12-18T06:50:47.961Z,33.56
2022-12-18T06:53:14.628Z,33.64
2022-12-18T06:55:41.290Z,33.54
2022-12-18T06:58:08.240Z,33.51
2022-12-18T07:00:37.822Z,33.61
2022-12-18T07:03:04.571Z,33.57
2022-12-18T07:05:31.166Z,33.57
2022-12-18T07:07:59.046Z,33.56
2022-12-18T07:10:25.718Z,33.56
2022-12-18T07:12:52.300Z,33.59
2022-12-18T07:15:18.841Z,33.63
2022-12-18T07:17:45.459Z,33.57
2022-12-18T07:20:12.119Z,33.60
2022-12-18T07:22:38.703Z,33.64
2022-12-18T07:25:05.786Z,33.75
2022-12-18T07:27:32.347Z,33.78
2022-12-18T07:29:59.334Z,33.73
2022-12-18T07:32:25.904Z,33.77
2022-12-18T07:34:52.479Z,33.82
2022-12-18T07:37:19.114Z,33.82
2022-12-18T07:39:45.729Z,33.82
2022-12-18T07:42:33.105Z,33.81
2022-12-18T07:45:00.692Z,33.79
2022-12-18T07:47:27.267Z,33.83
2022-12-18T07:49:54.513Z,33.83
2022-12-18T07:52:25.747Z,33.85
2022-12-18T07:54:55.494Z,33.84
2022-12-18T07:57:48.840Z,33.79
2022-12-18T08:00:09.261Z,33.88
2022-12-18T08:02:36.005Z,33.85
2022-12-18T08:05:02.828Z,33.93
2022-12-18T08:07:29.414Z,33.97
2022-12-18T08:09:56.025Z,34.04
2022-12-18T08:12:22.597Z,34.03
2022-12-18T08:14:49.174Z,34.05
2022-12-18T08:17:18.320Z,34.08
2022-12-18T08:19:44.925Z,34.05
2022-12-18T08:22:11.493Z,34.04
2022-12-18T08:24:38.057Z,34.04
2022-12-18T08:29:51.305Z,34.05
2022-12-18T08:32:17.919Z,34.08
2022-12-18T08:34:44.577Z,34.10
2022-12-18T08:37:13.593Z,34.07
2022-12-18T08:39:40.201Z,34.03
2022-12-18T08:42:25.344Z,34.06
2022-12-18T08:44:51.929Z,34.10
2022-12-18T08:47:18.527Z,34.19
2022-12-18T08:49:45.092Z,34.22
2022-12-18T08:52:16.031Z,34.26
2022-12-18T08:54:42.593Z,34.27
2022-12-18T08:57:09.182Z,34.31
2022-12-18T08:59:35.830Z,34.30
2022-12-18T09:02:02.613Z,33.70
2022-12-18T09:04:29.421Z,32.71
2022-12-18T09:06:55.964Z,31.71
2022-12-18T09:09:22.557Z,30.82
2022-12-18T09:11:51.546Z,30.06
2022-12-18T09:14:18.144Z,29.47
2022-12-18T09:16:44.883Z,29.16
2022-12-18T09:19:11.506Z,28.73
2022-12-18T09:21:40.230Z,28.62
2022-12-18T09:24:10.177Z,28.76
2022-12-18T09:26:36.970Z,28.95
2022-12-18T09:29:03.903Z,29.17
2022-12-18T09:31:30.501Z,29.32
2022-12-18T09:33:57.708Z,29.59
2022-12-18T09:36:24.329Z,29.72
2022-12-18T09:38:50.927Z,29.78
2022-12-18T09:41:41.635Z,29.95
2022-12-18T09:44:26.287Z,29.82
2022-12-18T09:47:17.550Z,29.85
2022-12-18T09:49:45.752Z,29.89
2022-12-18T09:52:20.409Z,30.07
2022-12-18T09:54:54.311Z,30.23
2022-12-18T09:57:22.778Z,30.32
2022-12-18T09:59:53.133Z,30.28
2022-12-18T10:02:24.704Z,30.61
2022-12-18T10:05:06.435Z,30.98
2022-12-18T10:07:54.969Z,31.57
2022-12-18T10:10:28.808Z,31.89
2022-12-18T10:13:08.820Z,32.31
2022-12-18T10:16:07.927Z,32.82
2022-12-18T10:18:37.641Z,33.19
2022-12-18T10:21:18.853Z,33.44
2022-12-18T10:24:26.856Z,33.61
2022-12-18T10:26:54.006Z,33.71
2022-12-18T10:29:20.568Z,33.79
2022-12-18T10:31:47.162Z,33.87
2022-12-18T10:34:16.779Z,33.91
2022-12-18T10:36:43.419Z,33.88
2022-12-18T10:39:23.931Z,33.84
2022-12-18T10:41:50.485Z,33.65
2022-12-18T10:44:21.580Z,33.38
2022-12-18T10:46:50.194Z,33.01
2022-12-18T10:49:40.858Z,32.68
2022-12-18T10:52:23.076Z,32.29
2022-12-18T10:54:50.272Z,31.92
2022-12-18T10:57:31.031Z,31.62
2022-12-18T10:59:58.750Z,31.43
2022-12-18T11:02:35.982Z,31.23
2022-12-18T11:05:02.959Z,31.16
2022-12-18T11:07:50.074Z,31.19
2022-12-18T11:10:18.441Z,31.23
2022-12-18T11:12:45.168Z,31.29
2022-12-18T11:15:17.594Z,31.39
2022-12-18T11:17:44.374Z,31.50
2022-12-18T11:20:21.051Z,31.51
2022-12-18T11:22:59.274Z,31.48
2022-12-18T11:25:34.450Z,31.53
2022-12-18T11:28:03.066Z,31.58
2022-12-18T11:30:31.517Z,31.63
2022-12-18T11:33:04.238Z,31.69
2022-12-18T11:35:43.093Z,31.73
2022-12-18T11:38:26.928Z,31.75
2022-12-18T11:40:57.703Z,31.67
2022-12-18T11:43:43.250Z,31.70
2022-12-18T11:46:19.063Z,31.62
2022-12-18T11:48:50.720Z,31.45
2022-12-18T11:51:27.417Z,31.29
2022-12-18T11:53:54.534Z,31.09
2022-12-18T11:56:36.212Z,30.78
2022-12-18T11:59:21.159Z,30.63
2022-12-18T12:01:52.106Z,30.38
2022-12-18T12:04:30.575Z,30.19
2022-12-18T12:07:09.326Z,30.01
2022-12-18T12:10:02.285Z,29.99
2022-12-18T12:12:54.735Z,30.14
2022-12-18T12:15:34.127Z,30.07
2022-12-18T12:18:11.112Z,30.07
2022-12-18T12:20:53.574Z,30.08
2022-12-18T12:23:38.538Z,30.05
2022-12-18T12:26:08.272Z,30.12
2022-12-18T12:28:47.147Z,30.13
2022-12-18T12:31:38.245Z,29.99
2022-12-18T12:34:17.134Z,29.87
2022-12-18T12:37:07.854Z,29.90
2022-12-18T12:39:37.694Z,29.79
2022-12-18T12:42:32.657Z,29.78
2022-12-18T12:44:59.549Z,29.72
2022-12-18T12:47:32.264Z,29.72
2022-12-18T12:50:04.097Z,29.59
2022-12-18T12:52:44.456Z,29.44
2022-12-18T12:55:19.944Z,29.36
2022-12-18T12:58:08.348Z,29.25
2022-12-18T13:00:42.686Z,29.06
2022-12-18T13:03:28.114Z,29.14
2022-12-18T13:05:58.051Z,29.06
2022-12-18T13:08:31.666Z,29.00
2022-12-18T13:11:20.222Z,28.95
2022-12-18T13:13:54.899Z,28.91
2022-12-18T13:16:22.990Z,28.96
2022-12-18T13:18:51.210Z,28.77
2022-12-18T13:21:24.950Z,28.75
2022-12-18T13:23:51.653Z,28.74
2022-12-18T13:26:21.949Z,28.63
2022-12-18T13:28:54.951Z,28.63
2022-12-18T13:31:24.447Z,28.55
2022-12-18T13:34:25.025Z,28.53
2022-12-18T13:36:38.050Z,28.47
2022-12-18T13:39:26.681Z,28.45
2022-12-18T13:43:00.425Z,28.44
2022-12-18T13:45:39.988Z,28.40
2022-12-18T13:48:17.175Z,28.41
2022-12-18T13:50:43.760Z,28.32
2022-12-18T13:53:19.196Z,28.29
2022-12-18T13:55:46.273Z,28.40
2022-12-18T13:58:13.073Z,28.29
2022-12-18T14:00:43.355Z,28.25
2022-12-18T14:03:27.389Z,28.40
2022-12-18T14:06:02.464Z,28.30
2022-12-18T14:08:33.920Z,28.25
2022-12-18T14:11:00.498Z,28.25
2022-12-18T14:13:32.326Z,28.24
2022-12-18T14:16:03.791Z,28.25
2022-12-18T14:18:36.174Z,28.13
2022-12-18T14:21:04.603Z,28.11
2022-12-18T14:23:36.174Z,28.10
2022-12-18T14:26:22.294Z,28.01
2022-12-18T14:28:49.385Z,28.05
2022-12-18T14:31:34.121Z,28.11
2022-12-18T14:34:00.740Z,28.05
2022-12-18T14:36:28.777Z,28.03
2022-12-18T14:38:59.027Z,28.03
2022-12-18T14:41:25.798Z,27.98
2022-12-18T14:43:53.429Z,28.06
2022-12-18T14:46:33.702Z,28.02
2022-12-18T14:49:01.913Z,27.93
2022-12-18T14:51:29.764Z,27.97
2022-12-18T14:54:01.713Z,27.92
2022-12-18T14:56:32.507Z,27.93
2022-12-18T14:59:22.237Z,27.91
2022-12-18T15:02:00.077Z,27.88
2022-12-18T15:04:30.488Z,27.81
2022-12-18T15:07:12.241Z,27.77
2022-12-18T15:09:39.395Z,27.83
2022-12-18T15:12:06.047Z,27.80
2022-12-18T15:14:38.735Z,27.79
2022-12-18T15:17:17.495Z,27.82
2022-12-18T15:19:44.823Z,27.79
2022-12-18T15:22:31.924Z,27.78
2022-12-18T15:24:59.092Z,27.73
2022-12-18T15:27:36.824Z,27.73
2022-12-18T15:30:06.346Z,27.81
2022-12-18T15:32:32.909Z,27.74
2022-12-18T15:35:09.798Z,27.68
2022-12-18T15:37:36.446Z,27.78
2022-12-18T15:40:03.369Z,27.73
2022-12-18T15:42:49.262Z,27.69
2022-12-18T15:45:15.870Z,27.79
2022-12-18T15:47:45.244Z,27.72
2022-12-18T15:50:11.834Z,27.74
2022-12-18T15:52:44.111Z,27.78
2022-12-18T15:55:40.504Z,27.67
2022-12-18T15:58:09.055Z,27.74
2022-12-18T16:00:36.447Z,27.73
2022-12-18T16:03:03.698Z,27.68
2022-12-18T16:05:32.990Z,27.71
2022-12-18T16:07:59.577Z,27.68
2022-12-18T16:10:26.636Z,27.67
2022-12-18T16:12:53.211Z,27.74
2022-12-18T16:15:24.238Z,27.72
2022-12-18T16:17:52.696Z,27.66
2022-12-18T16:20:21.674Z,27.70
2022-12-18T16:22:48.750Z,27.64
2022-12-18T16:25:24.505Z,27.63
2022-12-18T16:27:51.754Z,27.70
2022-12-18T16:30:27.374Z,27.65
2022-12-18T16:32:55.619Z,27.67
2022-12-18T16:35:25.431Z,27.72
2022-12-18T16:37:51.998Z,27.59
2022-12-18T16:40:18.835Z,27.60
2022-12-18T16:42:46.034Z,27.68
2022-12-18T16:45:15.774Z,27.64
2022-12-18T16:47:42.449Z,27.66
2022-12-18T16:50:09.696Z,27.68
2022-12-18T16:52:36.543Z,27.65
2022-12-18T16:55:03.692Z,27.60
2022-12-18T16:57:30.307Z,27.67
2022-12-18T17:00:02.967Z,27.63
2022-12-18T17:02:31.735Z,27.60
2022-12-18T17:04:58.656Z,27.65
2022-12-18T17:07:25.581Z,27.63
2022-12-18T17:09:54.040Z,27.57
2022-12-18T17:12:20.722Z,27.64
2022-12-18T17:14:47.306Z,27.74
2022-12-18T17:17:22.812Z,27.66
2022-12-18T17:19:50.564Z,27.69
2022-12-18T17:22:17.145Z,27.75
2022-12-18T17:24:43.704Z,27.63
2022-12-18T17:27:10.527Z,27.61
2022-12-18T17:29:39.141Z,27.63
2022-12-18T17:32:10.407Z,27.70
2022-12-18T17:34:37.874Z,27.59
2022-12-18T17:37:04.421Z,27.57
2022-12-18T17:39:31.019Z,27.74
2022-12-18T17:41:59.408Z,27.66
2022-12-18T17:44:26.032Z,27.57
2022-12-18T17:46:52.669Z,27.61
2022-12-18T17:49:19.302Z,27.58
2022-12-18T17:51:45.871Z,27.53
2022-12-18T17:54:12.514Z,27.59
2022-12-18T17:56:39.296Z,27.67
2022-12-18T17:59:06.960Z,27.64
2022-12-18T18:01:33.756Z,27.57
2022-12-18T18:04:01.968Z,27.67
2022-12-18T18:06:31.698Z,27.63
2022-12-18T18:09:01.046Z,27.61
2022-12-18T18:11:46.075Z,27.68
2022-12-18T18:14:17.370Z,27.70
2022-12-18T18:16:45.637Z,27.53
2022-12-18T18:19:14.329Z,27.57
2022-12-18T18:21:42.155Z,27.72
2022-12-18T18:24:09.481Z,27.61
2022-12-18T18:26:36.548Z,27.51
2022-12-18T18:29:07.523Z,27.61
2022-12-18T18:31:40.924Z,27.55
2022-12-18T18:34:08.381Z,27.44
2022-12-18T18:36:35.972Z,27.56
2022-12-18T18:39:03.069Z,27.55
2022-12-18T18:41:30.641Z,27.45
2022-12-18T18:43:57.683Z,27.46
2022-12-18T18:46:24.586Z,27.54
2022-12-18T18:48:51.217Z,27.41
2022-12-18T18:51:21.465Z,27.43
2022-12-18T18:53:49.346Z,27.49
2022-12-18T18:56:45.480Z,27.57
2022-12-18T18:59:06.092Z,27.50
2022-12-18T19:01:33.134Z,27.41
2022-12-18T19:04:03.782Z,27.50
2022-12-18T19:06:30.445Z,27.57
2022-12-18T19:08:57.852Z,27.45
2022-12-18T19:11:48.062Z,27.52
2022-12-18T19:14:15.049Z,27.59
2022-12-18T19:16:41.944Z,27.68
2022-12-18T19:19:08.678Z,27.53
2022-12-18T19:21:35.455Z,27.50
2022-12-18T19:24:02.674Z,27.60
2022-12-18T19:26:29.457Z,27.60
2022-12-18T19:29:03.407Z,27.50
2022-12-18T19:31:35.253Z,27.53
2022-12-18T19:34:03.190Z,27.65
2022-12-18T19:36:30.206Z,27.59
2022-12-18T19:38:58.403Z,27.51
2022-12-18T19:41:25.504Z,27.56
2022-12-18T19:43:52.553Z,27.61
2022-12-18T19:46:21.231Z,27.71
2022-12-18T19:48:48.170Z,27.76
2022-12-18T19:51:19.178Z,27.61
2022-12-18T19:53:45.824Z,27.61
2022-12-18T19:56:14.488Z,27.67
2022-12-18T19:58:41.360Z,27.71
2022-12-18T20:01:11.134Z,27.76
2022-12-18T20:03:40.432Z,27.80
2022-12-18T20:06:11.745Z,27.64
2022-12-18T20:08:38.460Z,27.70
2022-12-18T20:11:05.242Z,27.74
2022-12-18T20:13:31.954Z,27.82
2022-12-18T20:15:59.184Z,27.94
2022-12-18T20:18:26.244Z,27.95
2022-12-18T20:20:53.324Z,28.01
2022-12-18T20:23:22.763Z,28.10
2022-12-18T20:25:49.614Z,28.12
2022-12-18T20:28:16.363Z,28.11
2022-12-18T20:30:43.029Z,28.18
2022-12-18T20:33:09.620Z,28.21
2022-12-18T20:35:36.465Z,28.26
2022-12-18T20:38:03.643Z,28.31
2022-12-18T20:40:31.297Z,28.28
2022-12-18T20:42:57.914Z,28.37
2022-12-18T20:45:24.490Z,28.42
2022-12-18T20:47:54.370Z,28.51
2022-12-18T20:50:20.946Z,28.51
2022-12-18T20:52:48.102Z,28.55
2022-12-18T20:55:14.695Z,28.58
2022-12-18T20:57:41.255Z,28.64
2022-12-18T21:00:08.493Z,28.60
2022-12-18T21:02:35.742Z,28.56
2022-12-18T21:05:02.413Z,28.53
2022-12-18T21:07:29.075Z,28.56
2022-12-18T21:09:55.616Z,28.56
2022-12-18T21:12:40.317Z,28.58
2022-12-18T21:15:14.740Z,28.56
2022-12-18T21:17:44.507Z,28.61
2022-12-18T21:20:13.310Z,28.64
2022-12-18T21:22:44.578Z,28.67
2022-12-18T21:25:11.274Z,28.65
2022-12-18T21:27:37.969Z,28.73
2022-12-18T21:30:04.995Z,28.67
2022-12-18T21:32:33.688Z,28.58
2022-12-18T21:35:00.347Z,28.63
2022-12-18T21:37:26.928Z,28.71
2022-12-18T21:39:53.521Z,28.71
2022-12-18T21:42:38.774Z,28.65
2022-12-18T21:45:05.575Z,28.70
2022-12-18T21:47:32.254Z,28.74
2022-12-18T21:49:58.892Z,28.45
2022-12-18T21:52:31.239Z,28.40
2022-12-18T21:55:04.574Z,28.39
2022-12-18T21:57:33.094Z,28.44
2022-12-18T21:59:59.706Z,28.50
2022-12-18T22:02:26.890Z,28.43
2022-12-18T22:04:53.658Z,28.48
2022-12-18T22:07:21.730Z,28.53
2022-12-18T22:09:51.146Z,28.53
2022-12-18T22:12:35.372Z,28.58
2022-12-18T22:15:04.352Z,28.47
2022-12-18T22:17:30.968Z,28.51
2022-12-18T22:19:57.537Z,28.39
2022-12-18T22:22:24.320Z,28.40
2022-12-18T22:24:50.877Z,28.35
2022-12-18T22:27:17.464Z,28.35
2022-12-18T22:30:02.559Z,28.47
2022-12-18T22:32:30.816Z,28.42
2022-12-18T22:35:07.268Z,28.44
2022-12-18T22:37:39.409Z,28.50
2022-12-18T22:40:07.421Z,28.46
2022-12-18T22:42:34.182Z,28.54
2022-12-18T22:45:00.821Z,28.48
2022-12-18T22:47:30.071Z,28.46
2022-12-18T22:49:57.204Z,28.49
2022-12-18T22:52:25.008Z,28.54
2022-12-18T22:54:53.284Z,28.52
2022-12-18T22:57:21.632Z,28.53
2022-12-18T22:59:49.205Z,28.55
2022-12-18T23:02:19.322Z,28.58
2022-12-18T23:04:46.205Z,28.64
2022-12-18T23:07:12.777Z,28.57
2022-12-18T23:09:39.700Z,28.54
2022-12-18T23:12:06.629Z,28.60
2022-12-18T23:14:33.410Z,28.55
2022-12-18T23:17:00.010Z,28.56
2022-12-18T23:19:26.595Z,28.58
2022-12-18T23:21:54.842Z,28.61
2022-12-18T23:24:25.379Z,28.57
2022-12-18T23:26:52.092Z,28.62
2022-12-18T23:29:18.774Z,28.57
2022-12-18T23:31:45.427Z,28.31
2022-12-18T23:34:12.734Z,28.13
2022-12-18T23:36:46.300Z,28.23
2022-12-18T23:39:28.987Z,28.25
2022-12-18T23:41:59.990Z,28.29
2022-12-18T23:44:26.719Z,28.25
2022-12-18T23:46:53.431Z,28.33
2022-12-18T23:49:20.145Z,28.29
2022-12-18T23:51:46.703Z,28.13
2022-12-18T23:54:13.363Z,28.06
2022-12-18T23:56:39.930Z,28.11
2022-12-18T23:59:06.486Z,28.14
